PAUN/UNK METAR and TAF weather

Enter ICAO airport designator
Station Type Date Time Source
PAUN METAR 2020/07/11 22:56 UTC NOAA

PAUN 112256Z AUTO 35013G22KT 3SM +RA FEW012 BKN038 OVC080 13/09 A2977 RMK AO2 RAB42 SLP086 T01330094 PNO $


Station Type Date Time Source
PAUN Decoded METAR 2020/07/11 22:56 UTC NOAA

Unalakleet, AK, United States (PAUN) 63-53N 160-48W 6M
Jul 11, 2020 - 06:56 PM EDT / 2020.07.11 2256 UTC
Wind: from the N (350 degrees) at 15 MPH (13 KT) gusting to 25 MPH (22 KT):0
Visibility: 3 mile(s):0
Sky conditions: overcast
Weather: heavy rain
Temperature: 55.9 F (13.3 C)
Dew Point: 48.9 F (9.4 C)
Relative Humidity: 77%
Pressure (altimeter): 29.77 in. Hg (1008 hPa)
ob: PAUN 112256Z AUTO 35013G22KT 3SM +RA FEW012 BKN038 OVC080 13/09 A2977 RMK AO2 RAB42 SLP086 T01330094 PNO
cycle: 23

Station Type Date Time Source
PAUN TAF 2020/07/11 18:24 UTC NOAA

TAF PAUN 111720Z 1118/1218 VRB06KT P6SM BKN050 OVC100
FM112000 VRB06KT P6SM VCSH BKN050 OVC100
FM121200 VRB06KT P6SM SCT050 BKN100 BKN200

Example: see airport list